Terminal Aerodrome Forecast
Issued by NWS

Home | Current Version | Previous Version | Text Only | Print | Product List | Glossary On
Versions: 1 2 3 4 5 6 7 8 9 10 11 12 13 14 15 16 17 18 19 20 21
000
FTUS44 KMAF 311700
TAFHOB
TAF
KHOB 311729Z 3118/0118 10007KT 3SM BR OVC002
      TEMPO 3118/3120 1SM BR OVC001
     FM312100 18007KT P6SM OVC015
     FM010200 21006KT P6SM SCT040 BKN100
     FM010800 30008KT 4SM BR OVC009
     FM011200 33012KT P6SM SCT050=

USA.gov is the U.S. government's official web portal to all federal, state and local government web resources and services.